Time;durP1;ratioP1;P1;durP2;ratioP2;P2;SDS_P1;SDS_P2;PMS_P1;PMS_P2;Temp;Humidity;BMP_temperature;BMP_pressure;BME280_temperature;BME280_humidity;BME280_pressure;Samples;Min_cycle;Max_cycle;Signal;HPM_P1;HPM_P2
2023/12/18 00:00:25;;;;;;;16.13;12.67;;;;;;;2.56;100.00;98715.25;5070344;28;20374;-57
2023/12/18 00:02:52;;;;;;;16.37;12.57;;;;;;;2.55;100.00;98721.38;5070322;28;20245;-58
2023/12/18 00:05:20;;;;;;;15.97;12.17;;;;;;;2.60;100.00;98716.03;5069733;28;20228;-58
2023/12/18 00:07:46;;;;;;;16.33;12.70;;;;;;;2.52;100.00;98713.63;5069272;28;20209;-58
2023/12/18 00:10:13;;;;;;;15.47;11.93;;;;;;;2.53;100.00;98715.34;5070375;28;20194;-58
2023/12/18 00:12:40;;;;;;;16.20;12.43;;;;;;;2.63;100.00;98711.56;5069957;28;20210;-58
2023/12/18 00:15:07;;;;;;;15.73;12.23;;;;;;;2.61;100.00;98708.16;5069430;28;21026;-58
2023/12/18 00:17:35;;;;;;;15.97;12.93;;;;;;;2.56;100.00;98701.34;5070583;28;21341;-58
2023/12/18 00:20:02;;;;;;;16.23;13.07;;;;;;;2.52;100.00;98700.56;5070150;28;20203;-58
2023/12/18 00:22:30;;;;;;;14.60;11.70;;;;;;;2.51;100.00;98702.31;5070654;28;20263;-58
2023/12/18 00:24:56;;;;;;;15.60;11.63;;;;;;;2.49;100.00;98695.44;5073438;28;20216;-58
2023/12/18 00:27:23;;;;;;;14.07;11.50;;;;;;;2.36;100.00;98691.47;5074628;28;20664;-58
2023/12/18 00:29:49;;;;;;;13.03;11.37;;;;;;;2.37;100.00;98685.34;5073489;28;20198;-58
2023/12/18 00:32:16;;;;;;;15.43;12.30;;;;;;;2.28;100.00;98680.38;5074512;28;20202;-59
2023/12/18 00:34:42;;;;;;;16.53;12.23;;;;;;;2.20;100.00;98679.72;5073865;28;20289;-58
2023/12/18 00:37:09;;;;;;;13.07;10.63;;;;;;;2.22;100.00;98677.94;5074345;28;20207;-58
2023/12/18 00:39:38;;;;;;;15.07;11.13;;;;;;;2.11;100.00;98677.38;5074270;28;20200;-58
2023/12/18 00:42:05;;;;;;;16.00;12.13;;;;;;;2.17;100.00;98674.59;5074075;28;20195;-58
2023/12/18 00:44:32;;;;;;;18.27;12.57;;;;;;;2.20;100.00;98671.88;5073661;28;20210;-59
2023/12/18 00:46:58;;;;;;;16.93;12.97;;;;;;;2.26;100.00;98669.13;5073957;28;20226;-58
2023/12/18 00:49:27;;;;;;;14.70;11.47;;;;;;;2.25;100.00;98672.63;5073480;28;20520;-58
2023/12/18 00:51:54;;;;;;;15.27;12.13;;;;;;;2.21;100.00;98669.25;5074069;28;20205;-58
2023/12/18 00:54:20;;;;;;;16.10;12.20;;;;;;;2.27;100.00;98665.59;5073162;28;20206;-58
2023/12/18 00:56:48;;;;;;;16.40;12.23;;;;;;;2.29;100.00;98669.03;5073710;28;20195;-59
2023/12/18 00:59:14;;;;;;;14.80;11.20;;;;;;;2.31;100.00;98673.31;5072330;28;20221;-58
2023/12/18 01:01:42;;;;;;;16.00;12.57;;;;;;;2.37;100.00;98672.31;5073460;28;20729;-58
2023/12/18 01:04:08;;;;;;;18.03;13.43;;;;;;;2.37;100.00;98667.06;5073185;28;20213;-58
2023/12/18 01:06:35;;;;;;;16.57;13.07;;;;;;;2.35;100.00;98659.28;5074080;28;20554;-58
2023/12/18 01:09:02;;;;;;;20.20;13.33;;;;;;;2.37;100.00;98667.06;5073916;28;20202;-58
2023/12/18 01:11:29;;;;;;;15.83;12.23;;;;;;;2.42;100.00;98667.78;5074291;28;20321;-58
2023/12/18 01:13:57;;;;;;;14.60;10.83;;;;;;;2.44;100.00;98668.63;5073023;28;20206;-58
2023/12/18 01:16:23;;;;;;;13.40;11.23;;;;;;;2.45;100.00;98665.06;5073232;28;20226;-57
2023/12/18 01:18:50;;;;;;;13.67;11.27;;;;;;;2.39;100.00;98660.91;5073316;28;20205;-58
2023/12/18 01:21:16;;;;;;;13.53;11.20;;;;;;;2.42;100.00;98667.78;5073687;28;20319;-58
2023/12/18 01:23:43;;;;;;;13.23;10.87;;;;;;;2.49;100.00;98671.94;5073269;28;20210;-58
2023/12/18 01:26:09;;;;;;;12.93;11.03;;;;;;;2.47;100.00;98671.13;5073158;28;20222;-57
2023/12/18 01:28:36;;;;;;;12.50;10.67;;;;;;;2.41;100.00;98679.13;5071819;28;20198;-58
2023/12/18 01:31:04;;;;;;;12.03;9.97;;;;;;;2.37;100.00;98674.91;5073395;28;20319;-58
2023/12/18 01:33:31;;;;;;;12.80;10.87;;;;;;;2.37;100.00;98673.13;5072821;28;20238;-58
2023/12/18 01:35:57;;;;;;;12.83;10.70;;;;;;;2.41;100.00;98668.66;5072935;28;20194;-58
2023/12/18 01:38:24;;;;;;;11.23;9.73;;;;;;;2.31;100.00;98673.31;5072948;28;20208;-58
2023/12/18 01:40:52;;;;;;;11.27;10.07;;;;;;;2.32;100.00;98663.72;5073265;28;20248;-57
2023/12/18 01:43:25;;;;;;;12.73;10.17;;;;;;;2.42;100.00;98673.00;5071956;28;20241;-58
2023/12/18 01:45:56;;;;;;;12.67;10.07;;;;;;;2.43;100.00;98679.94;5073113;28;20226;-59
2023/12/18 01:48:25;;;;;;;10.67;9.57;;;;;;;2.38;100.00;98673.97;5072867;28;20187;-58
2023/12/18 01:50:54;;;;;;;11.67;10.00;;;;;;;2.32;100.00;98674.16;5072704;28;20646;-58
2023/12/18 01:53:21;;;;;;;10.10;8.93;;;;;;;2.32;100.00;98674.16;5072781;28;20213;-58
2023/12/18 01:55:47;;;;;;;11.07;8.60;;;;;;;2.23;100.00;98669.22;5072961;28;20206;-58
2023/12/18 01:58:14;;;;;;;10.50;9.30;;;;;;;2.25;100.00;98670.00;5075775;28;20202;-58
2023/12/18 02:00:42;;;;;;;11.17;9.50;;;;;;;2.28;100.00;98659.47;5078382;28;20205;-59
2023/12/18 02:03:09;;;;;;;10.77;9.33;;;;;;;2.33;100.00;98652.38;5078925;28;20225;-58
2023/12/18 02:05:38;;;;;;;10.77;9.57;;;;;;;2.41;100.00;98653.00;5072934;28;20230;-60
2023/12/18 02:08:06;;;;;;;11.17;9.63;;;;;;;2.40;100.00;98651.31;5072142;28;20209;-57
2023/12/18 02:10:33;;;;;;;11.27;9.57;;;;;;;2.40;100.00;98643.47;5072544;28;20631;-59
2023/12/18 02:13:01;;;;;;;11.77;9.80;;;;;;;2.40;100.00;98639.13;5071620;28;20222;-57
2023/12/18 02:15:27;;;;;;;11.83;9.77;;;;;;;2.33;100.00;98645.41;5071839;28;20288;-59
2023/12/18 02:17:54;;;;;;;11.73;9.87;;;;;;;2.36;100.00;98640.09;5072559;28;20203;-60
2023/12/18 02:20:20;;;;;;;11.57;9.57;;;;;;;2.36;100.00;98636.63;5071870;28;20199;-58
2023/12/18 02:22:52;;;;;;;11.13;9.93;;;;;;;2.41;100.00;98638.19;5072399;28;20531;-59
2023/12/18 02:25:19;;;;;;;14.40;11.60;;;;;;;2.46;100.00;98643.28;5071860;28;20203;-59
2023/12/18 02:27:48;;;;;;;15.00;11.43;;;;;;;2.42;100.00;98636.44;5071194;28;20536;-57
2023/12/18 02:30:15;;;;;;;13.07;9.80;;;;;;;2.43;100.00;98632.94;5072577;28;20206;-59
2023/12/18 02:32:42;;;;;;;11.23;9.90;;;;;;;2.46;100.00;98625.03;5073260;28;20305;-59
2023/12/18 02:35:09;;;;;;;12.53;10.63;;;;;;;2.52;100.00;98619.59;5072176;28;20194;-59
2023/12/18 02:37:36;;;;;;;18.47;12.57;;;;;;;2.57;100.00;98622.94;5071926;28;20195;-58
2023/12/18 02:40:04;;;;;;;18.17;14.07;;;;;;;2.56;100.00;98618.63;5071591;28;20286;-59
2023/12/18 02:42:31;;;;;;;13.90;11.23;;;;;;;2.62;100.00;98621.06;5072188;28;20297;-58
2023/12/18 02:44:57;;;;;;;11.73;9.90;;;;;;;2.59;100.00;98617.69;5071994;28;20198;-58
2023/12/18 02:47:24;;;;;;;10.40;9.07;;;;;;;2.60;100.00;98619.38;5069911;28;20687;-58
2023/12/18 02:49:51;;;;;;;9.30;8.40;;;;;;;2.56;100.00;98618.63;5071336;28;20595;-58
2023/12/18 02:52:17;;;;;;;8.10;7.30;;;;;;;2.56;100.00;98610.78;5071581;28;20206;-59
2023/12/18 02:54:45;;;;;;;8.70;7.87;;;;;;;2.46;100.00;98615.44;5071438;28;20593;-58
2023/12/18 02:57:13;;;;;;;9.20;7.93;;;;;;;2.53;100.00;98615.25;5071620;28;20554;-59
2023/12/18 02:59:40;;;;;;;10.47;8.97;;;;;;;2.58;100.00;98615.97;5071260;28;20305;-58
2023/12/18 03:02:06;;;;;;;9.30;8.27;;;;;;;2.48;100.00;98617.97;5071215;28;20647;-59
2023/12/18 03:04:33;;;;;;;8.10;7.27;;;;;;;2.53;100.00;98616.09;5071322;28;20204;-59
2023/12/18 03:07:00;;;;;;;8.50;7.70;;;;;;;2.36;100.00;98614.00;5070733;28;20670;-59
2023/12/18 03:09:26;;;;;;;8.37;7.57;;;;;;;2.31;100.00;98615.00;5071513;28;20210;-57
2023/12/18 03:11:53;;;;;;;8.33;7.33;;;;;;;2.17;100.00;98622.38;5071417;28;20206;-59
2023/12/18 03:14:21;;;;;;;8.00;7.20;;;;;;;2.26;100.00;98622.13;5071173;28;20280;-59
2023/12/18 03:16:47;;;;;;;8.40;7.60;;;;;;;2.19;100.00;98620.59;5071627;28;20196;-57
2023/12/18 03:19:14;;;;;;;8.53;7.63;;;;;;;2.24;100.00;98623.91;5074367;28;20206;-58
2023/12/18 03:21:41;;;;;;;8.20;7.37;;;;;;;2.24;100.00;98630.00;5073828;28;20195;-58
2023/12/18 03:24:07;;;;;;;9.20;7.90;;;;;;;2.28;100.00;98621.19;5072943;28;20212;-58
2023/12/18 03:26:34;;;;;;;7.70;6.90;;;;;;;2.26;100.00;98617.78;5072900;28;20249;-58
2023/12/18 03:29:01;;;;;;;7.83;7.00;;;;;;;2.22;100.00;98615.28;5072273;28;20297;-58
2023/12/18 03:31:28;;;;;;;8.00;7.23;;;;;;;2.16;100.00;98618.09;5071866;28;20241;-58
2023/12/18 03:33:55;;;;;;;9.03;7.73;;;;;;;2.17;100.00;98617.16;5072116;28;20207;-58
2023/12/18 03:36:22;;;;;;;8.33;7.23;;;;;;;2.21;100.00;98608.34;5086291;28;20261;-58
2023/12/18 03:38:49;;;;;;;8.00;7.20;;;;;;;2.25;100.00;98604.75;5094248;28;20187;-58
2023/12/18 03:41:16;;;;;;;8.20;7.40;;;;;;;2.18;100.00;98606.69;5090166;28;20301;-59
2023/12/18 03:43:42;;;;;;;8.87;7.70;;;;;;;2.19;100.00;98599.72;5073496;28;20206;-58
2023/12/18 03:46:09;;;;;;;9.20;8.20;;;;;;;2.12;100.00;98601.66;5070781;28;20208;-59
2023/12/18 03:48:37;;;;;;;9.63;8.53;;;;;;;2.13;100.00;98599.88;5071880;28;20204;-58
2023/12/18 03:51:05;;;;;;;9.60;8.17;;;;;;;2.10;100.00;98594.75;5071247;28;20198;-58
2023/12/18 03:53:32;;;;;;;9.07;8.17;;;;;;;2.14;100.00;98593.75;5071441;28;20544;-58
2023/12/18 03:55:58;;;;;;;11.40;9.30;;;;;;;2.17;100.00;98585.84;5071068;28;20597;-58
2023/12/18 03:58:25;;;;;;;10.57;9.20;;;;;;;2.22;100.00;98589.19;5083454;28;20239;-57
2023/12/18 04:00:52;;;;;;;11.83;9.60;;;;;;;2.30;100.00;98587.22;5096364;28;20194;-58
2023/12/18 04:03:18;;;;;;;12.47;9.80;;;;;;;2.24;100.00;98595.19;5096885;28;20209;-56
2023/12/18 04:05:46;;;;;;;11.30;9.37;;;;;;;2.27;100.00;98585.53;5096618;28;20257;-57
2023/12/18 04:08:13;;;;;;;11.97;9.77;;;;;;;2.31;100.00;98591.50;5095953;28;20241;-56
2023/12/18 04:10:42;;;;;;;9.80;8.80;;;;;;;2.29;100.00;98590.72;5094069;28;20228;-56
2023/12/18 04:13:10;;;;;;;10.80;9.67;;;;;;;2.25;100.00;98596.94;5075600;28;20206;-59
2023/12/18 04:15:37;;;;;;;12.60;10.03;;;;;;;2.30;100.00;98601.09;5073744;28;20687;-58
2023/12/18 04:18:04;;;;;;;9.60;8.60;;;;;;;2.30;100.00;98600.28;5078421;28;20697;-57
2023/12/18 04:20:31;;;;;;;12.00;9.33;;;;;;;2.31;100.00;98594.13;5082724;28;20286;-58
2023/12/18 04:23:00;;;;;;;10.40;8.83;;;;;;;2.27;100.00;98603.81;5076405;28;20284;-58
2023/12/18 04:25:27;;;;;;;10.43;8.63;;;;;;;2.27;100.00;98603.81;5076732;28;20634;-57
2023/12/18 04:27:54;;;;;;;9.47;8.47;;;;;;;2.25;100.00;98599.53;5073063;28;20222;-59
2023/12/18 04:30:21;;;;;;;9.13;7.97;;;;;;;2.23;100.00;98606.56;5070486;28;20607;-58
2023/12/18 04:32:47;;;;;;;9.30;8.37;;;;;;;2.17;100.00;98606.72;5070935;28;20227;-58
2023/12/18 04:35:14;;;;;;;9.83;8.80;;;;;;;2.19;100.00;98611.03;5070069;28;20623;-58
2023/12/18 04:37:41;;;;;;;9.00;8.07;;;;;;;2.22;100.00;98610.06;5071092;28;20545;-56
2023/12/18 04:40:10;;;;;;;9.23;8.23;;;;;;;2.27;100.00;98621.22;5071128;28;20271;-58
2023/12/18 04:42:37;;;;;;;10.03;8.57;;;;;;;2.34;100.00;98612.31;5070429;28;20298;-59
2023/12/18 04:45:04;;;;;;;8.37;7.47;;;;;;;2.31;100.00;98620.22;5070146;28;20541;-59
2023/12/18 04:47:30;;;;;;;10.47;8.47;;;;;;;2.31;100.00;98604.56;5070031;28;20233;-58
2023/12/18 04:49:57;;;;;;;8.20;7.40;;;;;;;2.28;100.00;98604.66;5071363;28;20650;-58
2023/12/18 04:52:24;;;;;;;9.27;8.00;;;;;;;2.17;100.00;98601.50;5073259;28;20210;-59
2023/12/18 04:54:50;;;;;;;10.17;8.87;;;;;;;2.13;100.00;98598.13;5072030;28;20294;-59
2023/12/18 04:57:18;;;;;;;9.37;8.07;;;;;;;2.17;100.00;98591.91;5071367;28;20202;-58
2023/12/18 04:59:47;;;;;;;9.80;8.07;;;;;;;2.20;100.00;98585.75;5071151;28;20202;-58
2023/12/18 05:02:13;;;;;;;7.47;6.77;;;;;;;2.21;100.00;98592.69;5071173;28;20201;-58
2023/12/18 05:04:39;;;;;;;7.50;6.70;;;;;;;2.12;100.00;98591.22;5070032;28;20655;-58
2023/12/18 05:07:07;;;;;;;7.70;6.23;;;;;;;2.23;100.00;98593.53;5070633;28;20226;-59
2023/12/18 05:09:34;;;;;;;7.27;6.57;;;;;;;2.12;100.00;98595.56;5071537;28;20218;-59
2023/12/18 05:12:00;;;;;;;7.10;6.40;;;;;;;1.97;100.00;98599.47;5073958;28;20206;-58
2023/12/18 05:14:28;;;;;;;6.77;6.17;;;;;;;1.95;100.00;98596.88;5073058;28;20233;-58
2023/12/18 05:16:55;;;;;;;7.40;6.70;;;;;;;1.95;100.00;98602.09;5073695;28;20198;-58
2023/12/18 05:19:21;;;;;;;7.27;6.67;;;;;;;2.06;100.00;98599.19;5073356;28;20248;-59
2023/12/18 05:21:49;;;;;;;7.20;6.33;;;;;;;2.06;100.00;98609.63;5073552;28;20298;-58
2023/12/18 05:24:16;;;;;;;7.77;6.97;;;;;;;2.09;100.00;98603.50;5073147;28;20217;-58
2023/12/18 05:26:43;;;;;;;8.90;7.60;;;;;;;2.09;100.00;98603.50;5073344;28;20206;-58
2023/12/18 05:29:09;;;;;;;11.73;9.33;;;;;;;2.08;100.00;98607.00;5072896;28;20210;-59
2023/12/18 05:31:37;;;;;;;10.60;9.07;;;;;;;2.11;100.00;98614.72;5073163;28;20198;-58
2023/12/18 05:34:04;;;;;;;10.73;9.37;;;;;;;2.08;100.00;98614.81;5073195;28;20206;-58
2023/12/18 05:36:31;;;;;;;11.57;9.40;;;;;;;2.14;100.00;98617.25;5072987;28;21290;-58
2023/12/18 05:38:57;;;;;;;13.40;10.17;;;;;;;2.13;100.00;98612.91;5073451;28;20631;-57
2023/12/18 05:41:24;;;;;;;13.90;9.73;;;;;;;2.16;100.00;98612.88;5076066;28;20216;-58
2023/12/18 05:43:50;;;;;;;12.97;9.63;;;;;;;2.16;100.00;98611.09;5073808;28;20210;-58
2023/12/18 05:46:17;;;;;;;12.83;10.37;;;;;;;2.13;100.00;98621.63;5073077;28;20226;-58
2023/12/18 05:48:45;;;;;;;11.30;8.77;;;;;;;2.12;100.00;98613.84;5072934;28;20271;-59
2023/12/18 05:51:24;;;;;;;10.83;8.90;;;;;;;2.05;100.00;98614.91;5072693;28;20202;-58
2023/12/18 05:53:50;;;;;;;11.30;8.97;;;;;;;2.10;100.00;98610.41;5073100;28;20220;-58
2023/12/18 05:56:17;;;;;;;9.07;8.10;;;;;;;2.09;100.00;98613.94;5072541;28;20213;-58
2023/12/18 05:58:44;;;;;;;10.70;8.97;;;;;;;2.03;100.00;98614.94;5072567;28;20217;-59
2023/12/18 06:01:11;;;;;;;10.97;7.77;;;;;;;1.91;100.00;98613.53;5072134;28;20220;-59
2023/12/18 06:03:37;;;;;;;8.17;7.00;;;;;;;1.93;100.00;98611.75;5072292;28;20499;-58
2023/12/18 06:06:06;;;;;;;7.00;6.30;;;;;;;1.89;100.00;98620.53;5073154;28;21410;-56
2023/12/18 06:08:33;;;;;;;6.57;5.97;;;;;;;1.80;100.00;98606.91;5072531;28;20551;-58
2023/12/18 06:11:00;;;;;;;6.70;6.10;;;;;;;1.74;100.00;98607.91;5072717;28;20198;-58
2023/12/18 06:13:28;;;;;;;7.30;6.60;;;;;;;1.68;100.00;98608.09;5072424;28;20210;-58
2023/12/18 06:15:55;;;;;;;8.10;7.30;;;;;;;1.83;100.00;98597.25;5072051;28;20694;-58
2023/12/18 06:18:22;;;;;;;7.53;6.73;;;;;;;1.88;100.00;98597.97;5072199;28;20208;-58
2023/12/18 06:20:48;;;;;;;7.67;6.87;;;;;;;1.93;100.00;98588.25;5072902;28;20221;-57
2023/12/18 06:23:16;;;;;;;9.10;7.97;;;;;;;1.89;100.00;98594.47;5072391;28;20206;-58
2023/12/18 06:25:43;;;;;;;11.57;8.70;;;;;;;1.92;100.00;98596.97;5072590;28;20205;-58
2023/12/18 06:28:09;;;;;;;12.77;10.23;;;;;;;1.94;100.00;98595.19;5072157;28;20218;-57
2023/12/18 06:30:36;;;;;;;12.17;9.43;;;;;;;1.91;100.00;98592.66;5072032;28;20637;-58
2023/12/18 06:33:03;;;;;;;12.17;9.63;;;;;;;1.99;100.00;98602.88;5072450;28;20205;-58
2023/12/18 06:35:29;;;;;;;11.90;9.73;;;;;;;1.94;100.00;98584.75;5076294;28;20301;-57
2023/12/18 06:37:56;;;;;;;13.27;9.87;;;;;;;2.00;100.00;98586.34;5080543;28;20226;-58
2023/12/18 06:40:24;;;;;;;12.37;10.20;;;;;;;1.94;100.00;98589.97;5078759;28;20331;-58
2023/12/18 06:42:50;;;;;;;14.03;10.97;;;;;;;2.02;100.00;98596.75;5072633;28;20868;-58
2023/12/18 06:45:17;;;;;;;12.50;9.43;;;;;;;2.00;100.00;98589.81;5071607;28;20198;-57
2023/12/18 06:47:44;;;;;;;15.07;10.67;;;;;;;2.05;100.00;98591.44;5072124;28;20229;-57
2023/12/18 06:50:10;;;;;;;14.17;10.47;;;;;;;2.07;100.00;98605.28;5072281;28;20217;-58
2023/12/18 06:52:38;;;;;;;15.43;11.00;;;;;;;1.98;100.00;98596.78;5072178;28;20202;-56
2023/12/18 06:55:06;;;;;;;15.80;10.33;;;;;;;1.97;100.00;98596.88;5071825;28;20226;-58
2023/12/18 06:57:34;;;;;;;11.87;9.53;;;;;;;2.05;100.00;98609.69;5071080;28;20191;-55
2023/12/18 07:00:00;;;;;;;11.87;9.13;;;;;;;2.14;100.00;98614.66;5071305;28;20297;-58
2023/12/18 07:02:27;;;;;;;9.57;8.57;;;;;;;2.09;100.00;98608.72;5071130;28;20209;-56
2023/12/18 07:04:54;;;;;;;10.53;8.50;;;;;;;2.10;100.00;98611.25;5071785;28;20206;-57
2023/12/18 07:07:21;;;;;;;8.67;7.77;;;;;;;1.98;100.00;98612.47;5071802;28;20199;-58
2023/12/18 07:09:48;;;;;;;9.53;8.33;;;;;;;1.82;100.00;98616.41;5071227;28;20217;-57
2023/12/18 07:12:15;;;;;;;8.70;7.87;;;;;;;1.85;100.00;98613.69;5071184;28;20688;-56
2023/12/18 07:14:47;;;;;;;8.83;7.93;;;;;;;1.85;100.00;98620.66;5070858;28;20238;-57
2023/12/18 07:17:14;;;;;;;7.63;6.90;;;;;;;1.94;100.00;98616.06;5070851;28;20746;-57
2023/12/18 07:19:42;;;;;;;7.57;6.63;;;;;;;1.87;100.00;98609.31;5071209;28;20202;-55
2023/12/18 07:22:09;;;;;;;8.00;6.20;;;;;;;1.82;100.00;98611.19;5070928;28;20221;-57
2023/12/18 07:24:35;;;;;;;7.30;6.60;;;;;;;1.85;100.00;98611.09;5071080;28;20284;-57
2023/12/18 07:27:02;;;;;;;6.73;6.10;;;;;;;1.85;100.00;98610.22;5071062;28;20542;-57
2023/12/18 07:29:29;;;;;;;7.10;6.50;;;;;;;1.88;100.00;98633.63;5070456;28;20230;-57
2023/12/18 07:31:57;;;;;;;5.83;5.33;;;;;;;1.87;100.00;98618.88;5069399;28;20210;-58
2023/12/18 07:34:24;;;;;;;6.00;5.50;;;;;;;1.90;100.00;98618.81;5070845;28;20202;-57
2023/12/18 07:36:50;;;;;;;5.80;5.30;;;;;;;1.97;100.00;98621.19;5071159;28;20213;-57
2023/12/18 07:39:18;;;;;;;6.33;5.67;;;;;;;1.95;100.00;98617.75;5070950;28;20701;-57
2023/12/18 07:41:44;;;;;;;6.27;5.67;;;;;;;1.96;100.00;98624.69;5070266;28;20603;-56
2023/12/18 07:44:11;;;;;;;6.57;5.90;;;;;;;1.94;100.00;98629.13;5070186;28;20217;-57
2023/12/18 07:46:37;;;;;;;7.83;6.37;;;;;;;1.93;100.00;98623.94;5070372;28;20204;-57
2023/12/18 07:49:06;;;;;;;7.13;6.43;;;;;;;1.79;100.00;98626.91;5070089;28;20231;-57
2023/12/18 07:51:33;;;;;;;7.40;6.27;;;;;;;1.91;100.00;98625.75;5070993;28;20218;-56
2023/12/18 07:54:01;;;;;;;7.17;6.47;;;;;;;1.91;100.00;98618.75;5070961;28;20218;-56
2023/12/18 07:56:28;;;;;;;6.77;6.10;;;;;;;2.06;100.00;98621.81;5070591;28;20202;-54
2023/12/18 07:58:55;;;;;;;7.57;6.40;;;;;;;2.18;100.00;98613.66;5071039;28;20289;-56
2023/12/18 08:01:21;;;;;;;7.87;7.00;;;;;;;2.25;100.00;98625.63;5070521;28;20286;-57
2023/12/18 08:03:48;;;;;;;7.17;6.47;;;;;;;2.29;100.00;98614.22;5070353;28;20202;-57
2023/12/18 08:06:17;;;;;;;7.30;6.50;;;;;;;2.16;100.00;98616.31;5070394;28;20205;-56
2023/12/18 08:08:44;;;;;;;7.23;6.53;;;;;;;2.19;100.00;98607.56;5070597;28;20222;-57
2023/12/18 08:11:10;;;;;;;8.23;6.67;;;;;;;2.24;100.00;98613.47;5071216;28;20199;-57
2023/12/18 08:13:40;;;;;;;7.77;6.97;;;;;;;2.24;100.00;98609.13;5070006;28;20217;-58
2023/12/18 08:16:08;;;;;;;8.60;7.63;;;;;;;2.25;100.00;98610.84;5070134;28;20237;-57
2023/12/18 08:18:35;;;;;;;9.17;7.70;;;;;;;2.30;100.00;98603.72;5069807;28;20203;-57
2023/12/18 08:21:01;;;;;;;9.10;7.83;;;;;;;2.37;100.00;98588.75;5070725;28;20198;-56
2023/12/18 08:23:29;;;;;;;11.30;8.63;;;;;;;2.34;100.00;98594.03;5073361;28;20218;-58
2023/12/18 08:25:56;;;;;;;9.30;8.10;;;;;;;2.24;100.00;98587.38;5073739;28;20283;-57
2023/12/18 08:28:22;;;;;;;9.70;8.40;;;;;;;2.28;100.00;98586.38;5074192;28;20765;-58
2023/12/18 08:30:49;;;;;;;9.63;7.70;;;;;;;2.22;100.00;98591.78;5075607;28;20301;-58
2023/12/18 08:33:18;;;;;;;9.10;7.63;;;;;;;2.16;100.00;98591.97;5071214;28;20206;-59
2023/12/18 08:35:46;;;;;;;10.47;7.97;;;;;;;2.16;100.00;98598.03;5070533;28;20300;-57
2023/12/18 08:38:13;;;;;;;8.47;7.57;;;;;;;2.22;100.00;98578.75;5069558;28;20615;-58
2023/12/18 08:40:41;;;;;;;9.10;7.53;;;;;;;2.27;100.00;98580.31;5070667;28;20202;-59
2023/12/18 08:43:08;;;;;;;10.23;8.10;;;;;;;2.22;100.00;98590.03;5069919;28;20206;-57
2023/12/18 08:45:35;;;;;;;9.13;8.03;;;;;;;2.28;100.00;98586.38;5072431;28;20206;-57
2023/12/18 08:48:02;;;;;;;11.83;9.70;;;;;;;2.19;100.00;98597.13;5073786;28;20237;-58
2023/12/18 08:50:30;;;;;;;10.13;8.60;;;;;;;2.18;100.00;98590.16;5074368;28;20657;-58
2023/12/18 08:52:56;;;;;;;12.00;8.87;;;;;;;2.29;100.00;98586.34;5077166;28;20217;-56
2023/12/18 08:55:24;;;;;;;10.00;8.70;;;;;;;2.25;100.00;98584.72;5078117;28;20195;-57
2023/12/18 08:57:52;;;;;;;12.53;9.37;;;;;;;2.32;100.00;98585.41;5082907;28;20313;-57
2023/12/18 09:00:19;;;;;;;10.87;8.93;;;;;;;2.37;100.00;98586.13;5078776;28;20210;-57
2023/12/18 09:02:47;;;;;;;14.43;10.13;;;;;;;2.38;100.00;98587.81;5076051;28;20211;-56
2023/12/18 09:05:14;;;;;;;13.27;10.23;;;;;;;2.33;100.00;98587.13;5074186;28;20417;-57
2023/12/18 09:07:40;;;;;;;12.57;9.53;;;;;;;2.33;100.00;98590.59;5074053;28;20710;-57
2023/12/18 09:10:08;;;;;;;12.73;9.57;;;;;;;2.38;100.00;98588.69;5074272;28;20236;-57
2023/12/18 09:12:35;;;;;;;14.43;9.40;;;;;;;2.43;100.00;98585.94;5073984;28;20236;-58
2023/12/18 09:15:07;;;;;;;14.47;10.77;;;;;;;2.47;100.00;98583.22;5073515;28;20317;-57
2023/12/18 09:17:36;;;;;;;13.50;9.93;;;;;;;2.55;100.00;98584.72;5073350;28;20289;-56
2023/12/18 09:20:03;;;;;;;14.77;10.70;;;;;;;2.50;100.00;98590.09;5073560;28;20542;-59
2023/12/18 09:22:31;;;;;;;16.90;10.80;;;;;;;2.51;100.00;98586.56;5073249;28;20199;-58
2023/12/18 09:24:58;;;;;;;13.77;10.67;;;;;;;2.50;100.00;98590.09;5073476;28;20672;-59
2023/12/18 09:27:25;;;;;;;13.77;10.30;;;;;;;2.43;100.00;98591.16;5074094;28;20205;-63
2023/12/18 09:29:51;;;;;;;14.37;10.07;;;;;;;2.54;100.00;98585.63;5072856;28;20236;-57
2023/12/18 09:32:19;;;;;;;14.37;10.27;;;;;;;2.46;100.00;98583.22;5073933;28;20207;-57
2023/12/18 09:34:46;;;;;;;13.47;9.97;;;;;;;2.50;100.00;98580.50;5075856;28;20198;-57
2023/12/18 09:37:13;;;;;;;14.13;10.10;;;;;;;2.53;100.00;98576.06;5076026;28;20220;-57
2023/12/18 09:39:43;;;;;;;13.37;10.30;;;;;;;2.53;100.00;98568.22;5076487;28;20203;-56
2023/12/18 09:42:10;;;;;;;14.27;10.03;;;;;;;2.50;100.00;98574.41;5076389;28;20206;-59
2023/12/18 09:44:37;;;;;;;14.13;10.90;;;;;;;2.47;100.00;98575.38;5072995;28;20211;-58
2023/12/18 09:47:07;;;;;;;13.17;9.93;;;;;;;2.46;100.00;98562.34;5073328;28;20872;-57
2023/12/18 09:49:35;;;;;;;10.63;8.17;;;;;;;2.40;100.00;98562.53;5073020;28;20234;-57
2023/12/18 09:52:03;;;;;;;10.43;8.83;;;;;;;2.42;100.00;98558.13;5073765;28;20202;-58
2023/12/18 09:54:30;;;;;;;10.27;9.00;;;;;;;2.38;100.00;98559.97;5072917;28;20203;-58
2023/12/18 09:56:57;;;;;;;11.30;9.30;;;;;;;2.40;100.00;98567.75;5073417;28;20194;-57
2023/12/18 09:59:24;;;;;;;9.53;8.37;;;;;;;2.39;100.00;98571.25;5072656;28;20287;-57
2023/12/18 10:01:55;;;;;;;9.60;7.83;;;;;;;2.42;100.00;98568.56;5073407;28;20218;-57
2023/12/18 10:04:23;;;;;;;10.70;8.83;;;;;;;2.42;100.00;98565.94;5072603;28;20848;-56
2023/12/18 10:06:51;;;;;;;10.47;8.27;;;;;;;2.49;100.00;98564.84;5073260;28;20199;-57
2023/12/18 10:09:19;;;;;;;8.70;7.80;;;;;;;2.32;100.00;98556.69;5077130;28;20241;-58
2023/12/18 10:11:49;;;;;;;8.90;7.70;;;;;;;2.41;100.00;98548.56;5078356;28;20194;-57
2023/12/18 10:14:17;;;;;;;11.33;8.23;;;;;;;2.41;100.00;98553.78;5075304;28;20570;-56
2023/12/18 10:16:44;;;;;;;8.17;7.33;;;;;;;2.46;100.00;98557.13;5072370;28;21423;-58
2023/12/18 10:19:12;;;;;;;9.03;8.03;;;;;;;2.46;100.00;98555.38;5072970;28;20290;-57
2023/12/18 10:21:39;;;;;;;9.67;8.13;;;;;;;2.38;100.00;98546.91;5074616;28;20210;-59
2023/12/18 10:24:09;;;;;;;10.13;8.07;;;;;;;2.36;100.00;98535.66;5072461;28;20195;-55
2023/12/18 10:26:36;;;;;;;9.23;8.20;;;;;;;2.44;100.00;98530.22;5072454;28;20636;-58
2023/12/18 10:29:03;;;;;;;10.27;8.30;;;;;;;2.53;100.00;98531.66;5071932;28;20328;-56
2023/12/18 10:31:30;;;;;;;11.37;9.70;;;;;;;2.55;100.00;98525.50;5072214;28;20876;-57
2023/12/18 10:33:58;;;;;;;11.30;8.87;;;;;;;2.59;100.00;98514.03;5072638;28;20206;-58
2023/12/18 10:36:25;;;;;;;10.90;8.67;;;;;;;2.60;100.00;98513.16;5071068;28;20235;-57
2023/12/18 10:38:52;;;;;;;10.73;8.60;;;;;;;2.53;100.00;98505.56;5072102;28;20286;-57
2023/12/18 10:41:21;;;;;;;9.63;8.63;;;;;;;2.63;100.00;98507.81;5072326;28;20210;-58
2023/12/18 10:43:49;;;;;;;10.53;8.93;;;;;;;2.66;100.00;98507.72;5071842;28;20550;-56
2023/12/18 10:46:16;;;;;;;10.70;9.00;;;;;;;2.62;100.00;98508.75;5071952;28;20217;-58
2023/12/18 10:48:42;;;;;;;11.30;9.23;;;;;;;2.61;100.00;98499.19;5071910;28;20254;-56
2023/12/18 10:51:12;;;;;;;13.10;9.13;;;;;;;2.68;100.00;98503.31;5072083;28;20277;-58
2023/12/18 10:53:39;;;;;;;12.53;9.83;;;;;;;2.64;100.00;98504.31;5072576;28;20230;-56
2023/12/18 10:56:06;;;;;;;10.37;8.93;;;;;;;2.61;100.00;98499.19;5072041;28;20305;-58
2023/12/18 10:58:38;;;;;;;11.63;9.90;;;;;;;2.69;100.00;98497.22;5071598;28;20206;-57
2023/12/18 11:01:07;;;;;;;11.93;9.53;;;;;;;2.65;100.00;98489.50;5072168;28;20208;-58
2023/12/18 11:03:34;;;;;;;14.63;9.10;;;;;;;2.67;100.00;98491.16;5072059;28;20233;-56
2023/12/18 11:06:01;;;;;;;11.00;9.63;;;;;;;2.76;100.00;98490.88;5071727;28;20238;-57
2023/12/18 11:08:28;;;;;;;11.27;9.70;;;;;;;2.77;100.00;98489.94;5070892;28;20199;-58
2023/12/18 11:10:58;;;;;;;11.63;9.37;;;;;;;2.79;100.00;98488.16;5072973;28;20272;-57
2023/12/18 11:13:27;;;;;;;13.33;8.90;;;;;;;2.84;100.00;98496.69;5075992;28;20198;-56
2023/12/18 11:16:03;;;;;;;11.33;9.47;;;;;;;2.76;100.00;98483.03;5078683;28;20249;-58
2023/12/18 11:18:39;;;;;;;10.77;9.33;;;;;;;2.77;100.00;98486.47;5073390;28;20205;-58
2023/12/18 11:21:06;;;;;;;13.77;9.47;;;;;;;2.80;100.00;98479.38;5071850;28;20285;-57
2023/12/18 11:23:38;;;;;;;10.87;9.63;;;;;;;2.99;100.00;98474.41;5071571;28;20198;-57
2023/12/18 11:26:07;;;;;;;13.23;9.90;;;;;;;2.98;100.00;98473.56;5071878;28;20217;-56